Honolulu Heaven Fly In!

All New/Stories related to the Land of the Rising Sun.

Moderators: UAL049 Jeffrey Bice, UAL025 Dennis Lynn

Post Reply
UAL909 Filipe Nunez
Posts: 114
Joined: August 4th, 2013, 3:12 pm
Location: Cicero, IL

Re: Honolulu Heaven Fly In!

Post by UAL909 Filipe Nunez » August 28th, 2014, 4:46 pm

I'm planing to attend, unless I get blocked by life drama :|

UAL04HH RJAA - PHNL
2000Z/300pm CST
747-400 <---"Big Bird" lol

Cya you all there 8-)
Image
Image
Image

UAL007 Jonathan Kost
VP of Scheduling
Posts: 193
Joined: September 17th, 2013, 12:21 am

Re: Honolulu Heaven Fly In!

Post by UAL007 Jonathan Kost » August 29th, 2014, 9:18 pm

Leaving from IAH
Image

UAL909 Filipe Nunez
Posts: 114
Joined: August 4th, 2013, 3:12 pm
Location: Cicero, IL

Re: Honolulu Heaven Fly In!

Post by UAL909 Filipe Nunez » August 30th, 2014, 10:23 am

Its a go for me, just got dispatch release, unless I get wife drama, but doubt it 8-)


UNITED AIR LINES DISPATCH RELEASE FSCAPTAIN 1.5.0

FLIGHT 4 RJAA-PHNL 30-AUG-14 20:00L

AIRCRAFT (TBA) OUT: _______ OFF: _______
TYPE B744 ON: _______ IN: _______

CREW INFORMATION:
DISP: J B SMITH / ____________________________ (SIGNED)
PIC : FELIPE NUNEZ / ____________________________ (SIGNED)

FUEL CALCULATION WEIGHT/FUEL BREAKDOWN
MIN 8000LB ZFW 506988LB
TAXI 2800LB T/O MIN 203200LB
PHNL 163856LB PLANNED TOW 712988LB
PHKO 6400LB ENROUTE BURN 163856LB
RSV 18000LB PLANNED LDW 546332LB
HOLD 6000LB ARRIVAL FOB 41623LB
***************
TOTAL 206000LB

WEATHER INFORMATION:
RJAA 291430Z 03007KT 6000 -SHRA BR FEW003 SCT015 BKN070 21/20 Q1014
BECMG 4000 -SHRA BR FEW005 BKN008 RMK 1ST003 3CU015 7AC070 A
PHNL 291353Z 33004KT 10SM FEW030 SCT100 24/20 A2989 RMK AO2 SLP122
T02440200
PHKO 291353Z AUTO 14004KT 10SM OVC085 25/19 A2986 RMK AO2 SLP113
T02500194 TSNO
Winds: FT 3000 06000 09000 12000 18000 24000 30000 34000 39000
RJAA: RJAA 1703 1604+15 1604+12 2307+09 2230+03 2451-03 2553-09 2671-13 2683-18
PHNL: PHNL 0712 0708+18 0606+15 2303+12 2417+06 2325+00 2626-06 2733-10 2749-15
PHNL 291456Z 2915/3018 VRB06KT P6SM FEW030 SCT050 FM292000 07011G18KT
P6SM FEW030 SCT050 FM300500 05007KT P6SM FEW030 SCT050

FLIGHTPLAN: (CRUISE ALT: 37000FT)
VIA POS HDG ALT DIST TIME ETE FUEL WIND DIR SPD ADJ
---------------------------------------------------------------------
RJAA 000 0 0:00 7:20 206000LB 3 170 0 0
PHNL 087 3311 7:26 0:00 41623LB 12 070 353 -6

LOAD MANIFEST:
1) 425 PAX Passengers 74375LB
2) 1 Lot Baggage 12750LB
3) 8 Boxes Documents 10500LB
4) 10 Crates Mail 13845LB
5) 2 Crates Vegetables 1430LB
********
TOTAL PAYLOAD 112900LB


REMARKS:
- NOTE NONSTD TRANSITION(S) RJAA=14000 PHNL=18000.
- ARRIVAL WINDOW 67 MINS EARLY TO 23 MINS LATE.
Image
Image
Image

UAL909 Filipe Nunez
Posts: 114
Joined: August 4th, 2013, 3:12 pm
Location: Cicero, IL

Re: Honolulu Heaven Fly In!

Post by UAL909 Filipe Nunez » August 30th, 2014, 11:23 pm

FS Captain 1.5, gives me a lil bit more realism with dispatch 8-)

http://www.fscaptain.net/
Image
Image
Image

UAL007 Gene Cao
Posts: 475
Joined: June 10th, 2012, 6:27 pm

Re: Honolulu Heaven Fly In!

Post by UAL007 Gene Cao » August 31st, 2014, 12:09 pm

Check out simbrief.com.

The UAL F;WZ format I helped develop using the RW UA dispatches. Legacy UAL dispatch is also available there too.
Image

UAL909 Filipe Nunez
Posts: 114
Joined: August 4th, 2013, 3:12 pm
Location: Cicero, IL

Re: Honolulu Heaven Fly In!

Post by UAL909 Filipe Nunez » September 5th, 2014, 8:02 pm

Simbrief nice, but damn what a looong dispatch release, 15pgs!
I like FS Captain for 2 reasons, dispatch obviously & passenger interactive plus they do whine if bad flight, + scoring system at end of flight 8-)
Image
Image
Image

Post Reply